createdAt,value
2019-06-20T00:04:31.340Z,67.15
2019-06-20T00:09:31.609Z,67.62
2019-06-20T00:14:34.054Z,69.12
2019-06-20T00:19:36.533Z,70.04
2019-06-20T00:24:39.004Z,71.07
2019-06-20T00:29:41.454Z,71.74
2019-06-20T00:34:43.914Z,70.84
2019-06-20T00:39:46.442Z,70.35
2019-06-20T00:44:48.895Z,71.41
2019-06-20T00:49:51.356Z,70.91
2019-06-20T00:54:53.830Z,70.49
2019-06-20T00:59:56.287Z,71.00
2019-06-20T01:04:58.738Z,70.67
2019-06-20T01:10:01.294Z,70.57
2019-06-20T01:15:03.677Z,70.48
2019-06-20T01:20:06.142Z,71.18
2019-06-20T01:25:08.617Z,71.36
2019-06-20T01:30:11.073Z,71.11
2019-06-20T01:35:13.527Z,71.61
2019-06-20T01:40:15.984Z,71.58
2019-06-20T01:45:18.458Z,71.48
2019-06-20T01:50:20.915Z,71.24
2019-06-20T01:55:23.379Z,70.98
2019-06-20T02:00:34.857Z,71.48
2019-06-20T02:05:37.325Z,71.39
2019-06-20T02:10:39.781Z,71.37
2019-06-20T02:15:42.238Z,70.90
2019-06-20T02:20:53.768Z,70.96
2019-06-20T02:25:56.220Z,71.08
2019-06-20T02:30:58.681Z,70.73
2019-06-20T02:36:01.372Z,69.32
2019-06-20T02:41:03.856Z,69.18
2019-06-20T02:46:06.306Z,68.38
2019-06-20T02:51:08.773Z,68.17
2019-06-20T02:56:11.233Z,68.36
2019-06-20T03:01:13.698Z,68.53
2019-06-20T03:06:16.162Z,68.73
2019-06-20T03:11:18.620Z,68.99
2019-06-20T03:16:21.059Z,67.94
2019-06-20T03:21:23.535Z,68.71
2019-06-20T03:26:26.011Z,67.96
2019-06-20T03:31:28.471Z,67.60
2019-06-20T03:36:30.936Z,67.78
2019-06-20T03:41:33.390Z,68.46
2019-06-20T03:46:35.846Z,68.92
2019-06-20T03:51:38.305Z,69.23
2019-06-20T03:56:40.758Z,69.24
2019-06-20T04:01:43.264Z,69.53
2019-06-20T04:06:45.730Z,67.78
2019-06-20T04:11:48.197Z,66.53
2019-06-20T04:16:50.724Z,67.27
2019-06-20T04:21:53.142Z,65.25
2019-06-20T04:26:55.655Z,64.30
2019-06-20T04:31:58.061Z,62.70
2019-06-20T04:37:00.554Z,61.88
2019-06-20T04:42:03.033Z,61.88
2019-06-20T04:47:08.320Z,62.00
2019-06-20T04:52:10.835Z,61.87
2019-06-20T04:57:13.331Z,61.90
2019-06-20T05:02:15.806Z,61.90
2019-06-20T05:07:18.477Z,62.57
2019-06-20T05:12:22.294Z,60.74
2019-06-20T05:17:23.373Z,58.99
2019-06-20T05:22:25.817Z,58.30
2019-06-20T05:27:28.285Z,57.36
2019-06-20T05:32:30.741Z,58.63
2019-06-20T05:37:33.261Z,57.18
2019-06-20T05:42:36.582Z,56.31
2019-06-20T05:47:39.039Z,54.26
2019-06-20T05:52:41.494Z,53.09
2019-06-20T05:57:43.956Z,51.62
2019-06-20T06:02:46.511Z,44.95
2019-06-20T06:07:48.969Z,41.68
2019-06-20T06:12:51.425Z,40.86
2019-06-20T06:17:53.883Z,39.88
2019-06-20T06:22:56.353Z,40.31
2019-06-20T06:27:58.819Z,39.02
2019-06-20T06:33:01.264Z,40.42
2019-06-20T06:38:03.732Z,41.17
2019-06-20T06:43:06.210Z,43.92
2019-06-20T06:48:08.665Z,43.96
2019-06-20T06:53:11.135Z,44.58
2019-06-20T06:58:13.607Z,43.16
2019-06-20T07:03:16.353Z,44.22
2019-06-20T07:08:18.804Z,45.15
2019-06-20T07:13:21.282Z,45.59
2019-06-20T07:18:23.763Z,44.88
2019-06-20T07:23:26.198Z,45.77
2019-06-20T07:28:28.657Z,46.19
2019-06-20T07:33:31.112Z,47.03
2019-06-20T07:38:33.599Z,46.81
2019-06-20T07:43:36.060Z,44.78
2019-06-20T07:48:38.539Z,41.00
2019-06-20T07:53:41.020Z,39.44
2019-06-20T07:58:43.504Z,41.33
2019-06-20T08:03:45.969Z,39.70
2019-06-20T08:08:48.458Z,39.67
2019-06-20T08:13:50.901Z,36.26
2019-06-20T08:18:53.391Z,35.18
2019-06-20T08:23:55.851Z,33.71
2019-06-20T08:29:10.436Z,32.94
2019-06-20T08:34:02.165Z,31.38
2019-06-20T08:39:04.248Z,33.46
2019-06-20T08:44:06.148Z,33.81
2019-06-20T08:49:08.255Z,31.75
2019-06-20T08:54:10.711Z,28.42
2019-06-20T08:59:23.852Z,17.63
2019-06-20T09:04:15.662Z,13.53
2019-06-20T09:09:18.117Z,9.92
2019-06-20T09:14:20.575Z,8.47
2019-06-20T09:19:23.027Z,15.83
2019-06-20T09:24:25.666Z,8.92
2019-06-20T09:29:40.867Z,17.06
2019-06-20T09:34:30.595Z,13.33
2019-06-20T09:39:33.072Z,9.21
2019-06-20T09:44:35.537Z,9.15
2019-06-20T09:49:38.024Z,18.00
2019-06-20T09:54:40.486Z,23.63
2019-06-20T09:59:56.140Z,19.01
2019-06-20T10:04:46.081Z,26.02
2019-06-20T10:09:48.227Z,27.11
2019-06-20T10:14:51.484Z,28.67
2019-06-20T10:19:54.055Z,32.46
2019-06-20T10:24:55.431Z,30.87
2019-06-20T10:30:13.206Z,25.76
2019-06-20T10:35:00.425Z,25.81
2019-06-20T10:40:02.855Z,27.41
2019-06-20T10:45:05.339Z,29.10
2019-06-20T10:50:07.808Z,30.24
2019-06-20T10:55:10.269Z,28.67
2019-06-20T11:00:12.735Z,30.20
2019-06-20T11:05:15.311Z,31.52
2019-06-20T11:10:17.787Z,34.40
2019-06-20T11:15:20.264Z,35.74
2019-06-20T11:20:22.762Z,36.82
2019-06-20T11:25:25.256Z,37.19
2019-06-20T11:30:27.725Z,38.99
2019-06-20T11:35:30.200Z,38.80
2019-06-20T11:40:32.658Z,39.17
2019-06-20T11:45:36.052Z,40.74
2019-06-20T11:50:37.922Z,41.09
2019-06-20T11:55:40.058Z,40.08
2019-06-20T12:00:42.529Z,39.76
2019-06-20T12:05:44.983Z,34.51
2019-06-20T12:10:47.456Z,37.11
2019-06-20T12:15:49.906Z,36.58
2019-06-20T12:20:52.394Z,38.45
2019-06-20T12:25:54.875Z,38.80
2019-06-20T12:30:57.376Z,39.00
2019-06-20T12:35:59.823Z,39.69
2019-06-20T12:41:02.289Z,38.62
2019-06-20T12:46:04.906Z,38.91
2019-06-20T12:51:07.389Z,40.68
2019-06-20T12:56:09.872Z,40.82
2019-06-20T13:01:12.362Z,40.96
2019-06-20T13:06:14.809Z,40.76
2019-06-20T13:11:17.310Z,41.42
2019-06-20T13:16:19.766Z,40.74
2019-06-20T13:21:22.226Z,40.40
2019-06-20T13:26:24.741Z,38.70
2019-06-20T13:31:27.202Z,37.47
2019-06-20T13:36:29.707Z,35.47
2019-06-20T13:41:32.162Z,37.02
2019-06-20T13:46:34.615Z,37.42
2019-06-20T13:51:37.086Z,37.07
2019-06-20T13:56:39.552Z,38.23
2019-06-20T14:01:43.556Z,38.00
2019-06-20T14:06:45.496Z,38.67
2019-06-20T14:11:47.303Z,40.64
2019-06-20T14:16:50.758Z,41.58
2019-06-20T14:21:51.905Z,42.64
2019-06-20T14:26:54.632Z,41.81
2019-06-20T14:31:56.867Z,42.24
2019-06-20T14:36:59.320Z,42.58
2019-06-20T14:42:01.799Z,41.10
2019-06-20T14:47:04.267Z,42.49
2019-06-20T14:52:06.729Z,42.12
2019-06-20T14:57:09.180Z,42.95
2019-06-20T15:02:11.664Z,42.28
2019-06-20T15:07:14.141Z,41.76
2019-06-20T15:12:16.614Z,42.28
2019-06-20T15:17:19.075Z,42.09
2019-06-20T15:22:21.554Z,41.85
2019-06-20T15:27:24.034Z,39.44
2019-06-20T15:32:26.580Z,40.06
2019-06-20T15:37:29.939Z,39.73
2019-06-20T15:42:32.400Z,41.59
2019-06-20T15:47:34.894Z,41.43
2019-06-20T15:52:37.386Z,43.12
2019-06-20T15:57:39.849Z,43.83
2019-06-20T16:02:42.321Z,43.17
2019-06-20T16:07:44.788Z,41.82
2019-06-20T16:12:47.274Z,43.17
2019-06-20T16:17:49.738Z,42.56
2019-06-20T16:22:52.212Z,42.03
2019-06-20T16:27:54.688Z,42.20
2019-06-20T16:32:57.198Z,43.03
2019-06-20T16:37:59.657Z,43.81
2019-06-20T16:43:02.121Z,44.72
2019-06-20T16:48:04.608Z,44.76
2019-06-20T16:53:07.059Z,45.89
2019-06-20T16:58:09.585Z,46.18
2019-06-20T17:03:12.038Z,46.51
2019-06-20T17:08:14.511Z,47.27
2019-06-20T17:13:17.003Z,46.83
2019-06-20T17:18:19.484Z,47.62
2019-06-20T17:23:21.963Z,46.23
2019-06-20T17:28:24.428Z,45.68
2019-06-20T17:33:26.915Z,44.88
2019-06-20T17:38:29.389Z,44.40
2019-06-20T17:43:31.862Z,44.35
2019-06-20T17:48:34.351Z,45.65
2019-06-20T17:53:36.832Z,45.92
2019-06-20T17:58:39.307Z,46.04
2019-06-20T18:03:41.763Z,47.40
2019-06-20T18:08:44.253Z,46.28
2019-06-20T18:13:46.750Z,47.14
2019-06-20T18:18:49.236Z,47.17
2019-06-20T18:23:51.731Z,47.31
2019-06-20T18:28:54.202Z,47.13
2019-06-20T18:33:56.681Z,47.67
2019-06-20T18:38:59.154Z,48.01
2019-06-20T18:44:01.641Z,48.52
2019-06-20T18:49:04.116Z,48.04
2019-06-20T18:54:06.598Z,47.66
2019-06-20T18:59:09.055Z,48.54
2019-06-20T19:04:11.552Z,47.99
2019-06-20T19:09:14.005Z,47.67
2019-06-20T19:14:16.453Z,47.85
2019-06-20T19:19:20.891Z,48.29
2019-06-20T19:24:21.410Z,48.79
2019-06-20T19:29:23.868Z,48.70
2019-06-20T19:34:26.331Z,49.09
2019-06-20T19:39:28.813Z,48.81
2019-06-20T19:44:31.282Z,49.08
2019-06-20T19:49:33.769Z,49.04
2019-06-20T19:54:36.350Z,49.40
2019-06-20T19:59:38.798Z,48.72
2019-06-20T20:04:41.279Z,48.76
2019-06-20T20:09:43.744Z,49.04
2019-06-20T20:14:46.206Z,48.91
2019-06-20T20:19:48.683Z,48.76
2019-06-20T20:24:51.151Z,49.17
2019-06-20T20:29:53.615Z,49.19
2019-06-20T20:34:56.100Z,49.92
2019-06-20T20:39:58.592Z,49.96
2019-06-20T20:45:01.020Z,50.04
2019-06-20T20:50:03.484Z,50.26
2019-06-20T20:55:06.023Z,50.07
2019-06-20T21:00:08.495Z,50.80
2019-06-20T21:05:10.962Z,50.32
2019-06-20T21:10:13.435Z,50.74
2019-06-20T21:15:15.897Z,51.17
2019-06-20T21:20:18.397Z,51.63
2019-06-20T21:25:20.840Z,52.13
2019-06-20T21:30:23.319Z,53.12
2019-06-20T21:35:25.794Z,53.55
2019-06-20T21:40:28.276Z,53.94
2019-06-20T21:45:30.739Z,54.15
2019-06-20T21:50:33.198Z,54.49
2019-06-20T21:55:35.670Z,55.08
2019-06-20T22:00:38.146Z,55.63
2019-06-20T22:05:40.666Z,55.93
2019-06-20T22:10:43.215Z,56.48
2019-06-20T22:15:45.838Z,56.63
2019-06-20T22:20:48.158Z,57.38
2019-06-20T22:25:50.660Z,57.81
2019-06-20T22:30:53.102Z,58.24
2019-06-20T22:35:55.756Z,58.65
2019-06-20T22:40:58.282Z,58.91
2019-06-20T22:46:00.732Z,58.41
2019-06-20T22:51:03.211Z,58.55
2019-06-20T22:56:05.707Z,59.18
2019-06-20T23:01:08.204Z,59.15
2019-06-20T23:06:10.700Z,59.08
2019-06-20T23:11:13.214Z,59.61
2019-06-20T23:16:15.679Z,59.89
2019-06-20T23:21:18.125Z,60.42
2019-06-20T23:26:20.579Z,60.00
2019-06-20T23:31:23.070Z,60.34
2019-06-20T23:36:25.526Z,61.10
2019-06-20T23:41:28.003Z,61.26
2019-06-20T23:46:30.474Z,61.12
2019-06-20T23:51:32.934Z,61.00
2019-06-20T23:56:35.393Z,61.20
